createdAt,value
2022-11-16T00:02:05.958Z,6.80
2022-11-16T00:05:04.300Z,7.20
2022-11-16T00:06:34.422Z,6.90
2022-11-16T00:15:28.867Z,9.00
2022-11-16T00:20:56.388Z,8.40
2022-11-16T00:23:53.379Z,8.80
2022-11-16T00:32:45.812Z,8.60
2022-11-16T00:34:13.037Z,8.90
2022-11-16T00:36:15.756Z,8.30
2022-11-16T00:37:45.863Z,8.10
2022-11-16T00:42:06.334Z,8.90
2022-11-16T00:45:14.181Z,7.70
2022-11-16T00:49:14.914Z,7.90
2022-11-16T00:50:43.749Z,8.00
2022-11-16T00:56:36.238Z,8.40
2022-11-16T00:59:56.802Z,8.10
2022-11-16T01:01:27.145Z,7.80
2022-11-16T01:04:31.487Z,8.40
2022-11-16T01:08:02.002Z,7.60
2022-11-16T01:11:15.197Z,7.60
2022-11-16T01:12:43.992Z,8.10
2022-11-16T01:14:12.968Z,8.20
2022-11-16T01:16:14.897Z,7.80
2022-11-16T01:18:35.785Z,7.50
2022-11-16T01:20:05.323Z,7.70
2022-11-16T01:25:06.925Z,7.50
2022-11-16T01:27:07.537Z,8.00
2022-11-16T01:33:26.492Z,7.20
2022-11-16T01:40:16.935Z,7.60
2022-11-16T01:41:50.092Z,7.80
2022-11-16T01:43:47.079Z,7.20
2022-11-16T01:45:46.109Z,7.30
2022-11-16T01:48:37.686Z,7.10
2022-11-16T01:51:06.675Z,6.90
2022-11-16T01:52:35.767Z,7.40
2022-11-16T01:56:02.614Z,7.30
2022-11-16T01:57:32.658Z,7.00
2022-11-16T02:00:15.993Z,6.80
2022-11-16T02:01:40.204Z,7.00
2022-11-16T02:03:09.087Z,6.30
2022-11-16T02:04:38.940Z,6.80
2022-11-16T02:06:08.677Z,6.90
2022-11-16T02:09:08.429Z,6.70
2022-11-16T02:11:58.892Z,6.80
2022-11-16T02:14:55.757Z,7.30
2022-11-16T02:18:23.890Z,6.50
2022-11-16T02:22:25.151Z,7.00
2022-11-16T02:23:52.217Z,6.90
2022-11-16T02:26:52.297Z,7.10
2022-11-16T02:28:19.322Z,7.10
2022-11-16T02:30:08.098Z,6.80
2022-11-16T02:31:38.784Z,7.40
2022-11-16T02:34:35.573Z,7.10
2022-11-16T02:38:45.642Z,6.90
2022-11-16T02:40:15.386Z,7.60
2022-11-16T02:42:44.826Z,8.60
2022-11-16T02:44:15.047Z,8.70
2022-11-16T02:52:37.320Z,8.20
2022-11-16T02:54:06.688Z,8.90
2022-11-16T03:00:44.503Z,9.20
2022-11-16T03:04:17.157Z,9.50
2022-11-16T03:08:39.401Z,9.70
2022-11-16T03:11:58.246Z,10.60
2022-11-16T03:15:07.902Z,10.30
2022-11-16T03:16:37.842Z,10.60
2022-11-16T03:21:34.562Z,11.70
2022-11-16T03:26:06.794Z,11.50
2022-11-16T03:30:19.008Z,10.90
2022-11-16T03:32:57.046Z,11.90
2022-11-16T03:38:26.322Z,11.70
2022-11-16T03:41:34.479Z,11.60
2022-11-16T03:43:39.559Z,12.00
2022-11-16T03:45:10.117Z,12.30
2022-11-16T03:48:09.492Z,11.60
2022-11-16T03:50:12.348Z,12.10
2022-11-16T03:51:41.801Z,12.80
2022-11-16T03:56:59.418Z,13.00
2022-11-16T04:01:08.060Z,12.50
2022-11-16T04:03:40.052Z,13.90
2022-11-16T04:05:10.686Z,13.50
2022-11-16T04:08:33.338Z,13.30
2022-11-16T04:10:34.992Z,12.50
2022-11-16T04:24:53.944Z,14.60
2022-11-16T04:27:42.427Z,15.50
2022-11-16T04:29:35.104Z,15.10
2022-11-16T04:38:22.058Z,16.80
2022-11-16T04:43:30.791Z,15.90
2022-11-16T04:49:02.887Z,16.00
2022-11-16T04:51:01.904Z,16.70
2022-11-16T05:00:27.151Z,16.90
2022-11-16T05:06:17.730Z,16.60
2022-11-16T05:08:56.761Z,17.90
2022-11-16T05:11:21.684Z,15.40
2022-11-16T05:17:25.712Z,17.60
2022-11-16T05:19:44.498Z,19.50
2022-11-16T05:21:18.676Z,18.40
2022-11-16T05:23:43.535Z,19.30
2022-11-16T05:26:33.720Z,18.40
2022-11-16T05:28:22.964Z,17.90
2022-11-16T05:29:54.830Z,19.90
2022-11-16T05:32:12.342Z,19.60
2022-11-16T05:34:08.238Z,19.00
2022-11-16T05:35:35.943Z,20.30
2022-11-16T05:39:32.271Z,20.50
2022-11-16T05:41:03.042Z,20.30
2022-11-16T05:45:24.997Z,21.40
2022-11-16T05:46:56.318Z,20.60
2022-11-16T05:51:47.627Z,20.00
2022-11-16T05:53:19.060Z,20.10
2022-11-16T06:01:14.554Z,18.50
2022-11-16T06:02:43.605Z,19.70
2022-11-16T06:07:14.202Z,19.60
2022-11-16T06:08:44.796Z,21.40
2022-11-16T06:11:46.640Z,19.60
2022-11-16T06:14:43.990Z,21.00
2022-11-16T06:21:09.065Z,15.40
2022-11-16T06:22:38.506Z,20.00
2022-11-16T06:24:09.327Z,18.90
2022-11-16T06:26:00.095Z,20.50
2022-11-16T06:27:30.281Z,20.30
2022-11-16T06:31:49.821Z,18.70
2022-11-16T06:34:10.530Z,18.80
2022-11-16T06:36:34.404Z,17.30
2022-11-16T06:38:13.457Z,18.70
2022-11-16T06:40:59.237Z,18.30
2022-11-16T06:42:49.422Z,19.80
2022-11-16T06:45:49.231Z,17.90
2022-11-16T06:47:17.182Z,17.50
2022-11-16T06:52:14.593Z,15.10
2022-11-16T07:00:33.884Z,13.90
2022-11-16T07:04:54.794Z,12.30
2022-11-16T07:07:12.757Z,11.30
2022-11-16T07:08:42.201Z,11.40
2022-11-16T07:13:11.251Z,10.30
2022-11-16T07:21:12.895Z,9.90
2022-11-16T07:28:08.665Z,8.70
2022-11-16T07:37:56.506Z,7.80
2022-11-16T07:43:18.791Z,8.40
2022-11-16T07:45:38.660Z,9.10
2022-11-16T07:48:59.989Z,8.80
2022-11-16T07:50:29.949Z,9.00
2022-11-16T07:52:50.399Z,9.30
2022-11-16T07:56:29.855Z,9.60
2022-11-16T08:01:34.671Z,10.30
2022-11-16T08:06:53.587Z,9.40
2022-11-16T08:08:43.157Z,9.90
2022-11-16T08:10:10.707Z,10.00
2022-11-16T08:15:30.306Z,9.20
2022-11-16T08:18:45.811Z,9.40
2022-11-16T08:20:16.645Z,8.90
2022-11-16T08:22:39.443Z,8.40
2022-11-16T08:26:38.389Z,8.00
2022-11-16T08:30:31.153Z,6.80
2022-11-16T08:32:31.752Z,7.10
2022-11-16T08:35:21.151Z,6.20
2022-11-16T08:37:23.333Z,6.70
2022-11-16T08:39:42.006Z,6.70
2022-11-16T08:42:14.745Z,6.60
2022-11-16T08:43:14.692Z,5.90
2022-11-16T08:44:14.654Z,6.40
2022-11-16T08:47:21.317Z,5.50
2022-11-16T08:50:10.742Z,6.00
2022-11-16T08:51:40.494Z,5.10
2022-11-16T08:53:10.480Z,5.10
2022-11-16T09:00:28.031Z,4.50
2022-11-16T09:02:30.042Z,4.20
2022-11-16T09:05:55.568Z,4.20
2022-11-16T09:07:22.776Z,4.70
2022-11-16T09:12:36.400Z,3.80
2022-11-16T09:14:10.010Z,4.20
2022-11-16T09:21:37.479Z,3.80
2022-11-16T09:23:56.040Z,4.00
2022-11-16T09:25:24.320Z,4.60
2022-11-16T09:28:02.209Z,4.20
2022-11-16T09:29:02.374Z,4.40
2022-11-16T09:30:01.955Z,4.20
2022-11-16T09:35:21.404Z,4.20
2022-11-16T09:38:34.840Z,4.30
2022-11-16T09:39:53.668Z,4.20
2022-11-16T09:43:13.971Z,5.00
2022-11-16T09:45:37.262Z,4.70
2022-11-16T09:47:14.483Z,4.60
2022-11-16T09:56:30.361Z,4.60
2022-11-16T10:00:00.017Z,4.50
2022-11-16T10:01:32.185Z,5.30
2022-11-16T10:03:39.000Z,4.70
2022-11-16T10:07:02.056Z,4.20
2022-11-16T10:10:03.236Z,4.30
2022-11-16T10:12:59.215Z,3.90
2022-11-16T10:16:00.476Z,3.50
2022-11-16T10:17:32.600Z,3.80
2022-11-16T10:19:00.746Z,3.50
2022-11-16T10:21:06.288Z,2.90
2022-11-16T10:23:57.270Z,4.10
2022-11-16T10:25:34.524Z,3.70
2022-11-16T10:31:14.654Z,2.80
2022-11-16T10:32:43.665Z,3.20
2022-11-16T10:34:46.326Z,2.90
2022-11-16T10:37:08.625Z,2.40
2022-11-16T10:41:45.463Z,2.70
2022-11-16T10:46:50.649Z,2.30
2022-11-16T10:50:35.439Z,2.60
2022-11-16T10:53:44.168Z,2.30
2022-11-16T10:55:55.288Z,2.30
2022-11-16T10:59:04.845Z,2.40
2022-11-16T11:05:42.068Z,2.50
2022-11-16T11:09:33.415Z,3.00
2022-11-16T11:11:32.991Z,2.50
2022-11-16T11:13:05.203Z,2.90
2022-11-16T11:14:32.371Z,2.40
2022-11-16T11:17:54.117Z,2.40
2022-11-16T11:23:13.129Z,2.50
2022-11-16T11:25:01.870Z,3.10
2022-11-16T11:26:36.203Z,3.10
2022-11-16T11:28:51.602Z,2.70
2022-11-16T11:30:21.509Z,2.50
2022-11-16T11:34:10.934Z,2.50
2022-11-16T11:36:57.631Z,2.80
2022-11-16T11:38:26.672Z,2.40
2022-11-16T11:44:02.956Z,2.70
2022-11-16T11:46:20.873Z,2.80
2022-11-16T11:47:58.132Z,2.80
2022-11-16T11:50:11.502Z,3.00
2022-11-16T11:53:30.166Z,3.80
2022-11-16T11:57:28.880Z,3.30
2022-11-16T11:59:25.867Z,3.90
2022-11-16T12:01:44.728Z,2.40
2022-11-16T12:03:16.501Z,2.40
2022-11-16T12:06:44.355Z,4.40
2022-11-16T12:08:10.196Z,4.10
2022-11-16T12:10:14.577Z,2.90
2022-11-16T12:13:48.587Z,4.50
2022-11-16T12:15:15.474Z,3.30
2022-11-16T12:17:07.706Z,2.10
2022-11-16T12:18:56.579Z,2.70
2022-11-16T12:23:58.946Z,2.30
2022-11-16T12:25:30.900Z,4.20
2022-11-16T12:27:02.890Z,2.50
2022-11-16T12:28:31.436Z,2.50
2022-11-16T12:30:53.697Z,2.30
2022-11-16T12:33:51.729Z,2.30
2022-11-16T12:37:02.782Z,2.50
2022-11-16T12:39:51.401Z,2.70
2022-11-16T12:42:12.289Z,2.80
2022-11-16T12:43:40.523Z,2.70
2022-11-16T12:50:01.100Z,2.80
2022-11-16T12:53:44.129Z,1.90
2022-11-16T12:55:32.078Z,1.90
2022-11-16T12:57:01.447Z,2.00
2022-11-16T13:00:21.926Z,2.50
2022-11-16T13:02:55.980Z,2.20
2022-11-16T13:04:45.657Z,2.10
2022-11-16T13:07:13.908Z,2.20
2022-11-16T13:12:04.947Z,2.00
2022-11-16T13:17:08.419Z,2.00
2022-11-16T13:21:21.141Z,2.40
2022-11-16T13:24:12.301Z,1.90
2022-11-16T13:27:54.869Z,1.70
2022-11-16T13:30:53.959Z,1.60
2022-11-16T13:32:42.268Z,1.50
2022-11-16T13:34:36.581Z,2.00
2022-11-16T13:36:52.777Z,1.50
2022-11-16T13:42:09.839Z,2.00
2022-11-16T13:43:38.583Z,2.00
2022-11-16T13:50:03.995Z,1.50
2022-11-16T13:51:41.561Z,1.70
2022-11-16T13:55:37.766Z,1.70
2022-11-16T14:00:30.172Z,1.90
2022-11-16T14:03:23.399Z,2.10
2022-11-16T14:05:04.373Z,1.60
2022-11-16T14:06:38.629Z,1.90
2022-11-16T14:09:11.800Z,1.60
2022-11-16T14:11:30.216Z,2.70
2022-11-16T14:18:24.547Z,2.00
2022-11-16T14:21:33.190Z,2.20
2022-11-16T14:29:41.304Z,2.70
2022-11-16T14:32:28.518Z,2.00
2022-11-16T14:36:37.896Z,1.80
2022-11-16T14:38:38.214Z,2.20
2022-11-16T14:41:56.831Z,2.40
2022-11-16T14:43:56.552Z,2.20
2022-11-16T14:47:24.709Z,2.70
2022-11-16T14:52:35.178Z,2.60
2022-11-16T14:55:21.804Z,2.20
2022-11-16T14:58:22.099Z,2.90
2022-11-16T15:02:09.641Z,2.40
2022-11-16T15:05:08.895Z,2.10
2022-11-16T15:08:40.474Z,2.40
2022-11-16T15:10:37.304Z,2.50
2022-11-16T15:12:07.536Z,2.20
2022-11-16T15:15:47.263Z,2.70
2022-11-16T15:18:18.870Z,2.80
2022-11-16T15:19:48.039Z,3.00
2022-11-16T15:21:18.743Z,2.50
2022-11-16T15:22:49.551Z,2.50
2022-11-16T15:24:29.866Z,3.70
2022-11-16T15:29:58.079Z,3.10
2022-11-16T15:31:56.559Z,2.80
2022-11-16T15:33:48.342Z,3.40
2022-11-16T15:36:24.298Z,3.30
2022-11-16T15:38:14.314Z,3.10
2022-11-16T15:39:45.965Z,2.80
2022-11-16T15:41:51.414Z,3.40
2022-11-16T15:43:22.279Z,3.70
2022-11-16T15:46:19.613Z,3.60
2022-11-16T15:51:22.998Z,3.10
2022-11-16T15:57:23.614Z,3.20
2022-11-16T16:02:15.675Z,3.80
2022-11-16T16:09:55.685Z,5.50
2022-11-16T16:11:27.018Z,5.00
2022-11-16T16:14:06.290Z,3.90
2022-11-16T16:21:00.083Z,5.90
2022-11-16T16:23:48.287Z,6.10
2022-11-16T16:24:27.184Z,6.60
2022-11-16T16:25:27.143Z,6.90
2022-11-16T16:26:27.130Z,6.00
2022-11-16T16:30:00.829Z,5.60
2022-11-16T16:31:31.694Z,7.00
2022-11-16T16:33:29.338Z,5.80
2022-11-16T16:35:53.306Z,6.20
2022-11-16T16:39:36.283Z,6.20
2022-11-16T16:40:55.597Z,5.30
2022-11-16T16:43:01.230Z,5.40
2022-11-16T16:44:01.207Z,5.70
2022-11-16T16:45:01.217Z,5.70
2022-11-16T16:46:30.652Z,5.60
2022-11-16T16:52:14.516Z,5.80
2022-11-16T16:54:35.108Z,4.90
2022-11-16T16:59:58.023Z,5.60
2022-11-16T17:05:20.954Z,5.40
2022-11-16T17:06:31.041Z,5.40
2022-11-16T17:08:52.759Z,4.90
2022-11-16T17:11:14.639Z,7.80
2022-11-16T17:12:42.017Z,9.60
2022-11-16T17:18:43.353Z,4.60
2022-11-16T17:20:13.276Z,5.30
2022-11-16T17:22:17.614Z,5.50
2022-11-16T17:26:37.139Z,9.80
2022-11-16T17:32:21.973Z,5.30
2022-11-16T17:33:50.870Z,5.50
2022-11-16T17:35:49.655Z,6.50
2022-11-16T17:37:18.594Z,6.70
2022-11-16T17:39:48.847Z,6.10
2022-11-16T17:41:17.311Z,5.20
2022-11-16T17:48:39.827Z,6.20
2022-11-16T17:50:11.648Z,4.90
2022-11-16T17:54:04.046Z,4.80
2022-11-16T17:59:42.577Z,4.60
2022-11-16T18:05:13.950Z,4.20
2022-11-16T18:06:41.069Z,4.30
2022-11-16T18:10:02.263Z,4.40
2022-11-16T18:19:40.200Z,4.20
2022-11-16T18:25:01.366Z,5.70
2022-11-16T18:28:45.283Z,6.90
2022-11-16T18:51:32.907Z,4.90
2022-11-16T18:53:26.799Z,5.90
2022-11-16T18:58:49.363Z,6.20
2022-11-16T19:02:25.074Z,6.40
2022-11-16T19:03:53.939Z,6.30
2022-11-16T19:07:03.131Z,6.20
2022-11-16T19:09:23.222Z,5.70
2022-11-16T19:18:36.387Z,5.50
2022-11-16T19:20:40.839Z,6.80
2022-11-16T19:23:24.787Z,4.80
2022-11-16T19:24:55.383Z,4.70
2022-11-16T19:26:42.210Z,5.50
2022-11-16T19:33:04.784Z,5.30
2022-11-16T19:35:34.277Z,4.80
2022-11-16T19:37:26.092Z,4.70
2022-11-16T19:43:38.279Z,5.60
2022-11-16T19:52:23.716Z,5.30
2022-11-16T19:55:56.806Z,5.60
2022-11-16T20:00:12.118Z,4.90
2022-11-16T20:02:29.318Z,5.20
2022-11-16T20:07:40.859Z,5.20
2022-11-16T20:09:30.871Z,4.80
2022-11-16T20:12:50.303Z,5.50
2022-11-16T20:18:08.761Z,5.50
2022-11-16T20:19:59.461Z,5.10
2022-11-16T20:22:27.676Z,5.30
2022-11-16T20:28:37.408Z,5.10
2022-11-16T20:35:18.973Z,5.50
2022-11-16T20:50:55.517Z,7.20
2022-11-16T20:57:42.530Z,5.30
2022-11-16T20:59:52.171Z,5.10
2022-11-16T21:01:42.495Z,5.70
2022-11-16T21:03:16.900Z,5.90
2022-11-16T21:06:30.769Z,5.50
2022-11-16T21:08:01.115Z,5.30
2022-11-16T21:15:56.642Z,5.10
2022-11-16T21:20:05.330Z,4.80
2022-11-16T21:22:18.645Z,4.70
2022-11-16T21:33:16.998Z,5.50
2022-11-16T21:37:02.539Z,6.00
2022-11-16T21:38:32.495Z,4.70
2022-11-16T21:41:26.164Z,4.60
2022-11-16T22:00:25.374Z,4.50
2022-11-16T22:04:28.619Z,5.40
2022-11-16T22:06:08.698Z,5.10
2022-11-16T22:13:14.492Z,4.90
2022-11-16T22:15:35.778Z,4.90
2022-11-16T22:25:21.971Z,4.80
2022-11-16T22:31:30.993Z,5.70
2022-11-16T22:35:15.305Z,4.90
2022-11-16T22:36:45.216Z,5.10
2022-11-16T22:38:47.008Z,4.80
2022-11-16T22:40:36.799Z,4.80
2022-11-16T22:42:40.231Z,4.90
2022-11-16T22:44:30.837Z,5.40
2022-11-16T22:46:00.798Z,4.60
2022-11-16T22:52:56.368Z,4.80
2022-11-16T22:54:30.244Z,5.40
2022-11-16T22:55:59.419Z,4.50
2022-11-16T22:58:34.405Z,5.10
2022-11-16T23:00:03.688Z,4.50
2022-11-16T23:01:55.375Z,5.30
2022-11-16T23:03:48.283Z,4.80
2022-11-16T23:04:54.977Z,5.00
2022-11-16T23:16:22.936Z,4.90
2022-11-16T23:18:59.147Z,4.70
2022-11-16T23:22:22.316Z,4.60
2022-11-16T23:23:50.967Z,5.30
2022-11-16T23:30:25.653Z,5.80
2022-11-16T23:37:19.928Z,4.50
2022-11-16T23:42:40.400Z,5.00
2022-11-16T23:47:21.100Z,4.80
2022-11-16T23:48:53.885Z,4.10
